• Join FlightAware (Why Join?)
  • Login
  • US Flag 
06:34PM EDT


 

Airport Tracker/Info


-or-


 

Live Flight TrackerFlight Track Log ✈ FLG3429 ✈ 18-Jul-2013 ✈ KJFK - KJAX

Flight Track Log - Related Links

Times and Time Zones

All times are in EDT time to prevent confusion due to time zone crossing. See the FLG3429 flight status page for this flight to view local times or setup timezone preferences in your user account.

Time Position Orientation Groundspeed Altitude Reporting Facility
EDT Latitude Longitude Course Direction KTS MPH feet Rate Location/Type
08:56PM 40.6333 -73.8667 270° West 195 224 2,000  Level New York TRACON
08:57PM 40.5833 -73.9167 217° Southwest 257 296 3,800 2,040 Climbing New York TRACON
08:58PM 40.3607 -74.2099 232° Southwest  Level FlightAware Approximate
08:58PM 40.5167 -73.9833 217° Southwest 277 319 6,300  Level New York TRACON
08:59PM 40.2907 -74.3267 232° Southwest  Level FlightAware Approximate
08:59PM 40.4500 -74.0333 210° Southwest 286 329 8,800  Level New York TRACON
09:00PM 40.2233 -74.4401 229° Southwest  Level FlightAware Approximate
09:00PM 40.3833 -74.1000 217° Southwest 297 342 10,800  Level New York TRACON
09:01PM 40.1833 -74.5697 270° West  Level FlightAware Approximate
09:01PM 40.3333 -74.2000 237° Southwest 345 397 12,000  Level New York TRACON
09:02PM 40.2833 -74.3167 241° Southwest 351 404 14,000 1,800 Climbing New York TRACON
09:03PM 40.2183 -74.4678 241° Southwest 349 402 16,500 1,260 Climbing New York Center
09:04PM 40.1953 -74.5969 257° West 354 407 17,200 1,200 Climbing New York Center
09:05PM 40.1847 -74.7322 264° West 367 422 19,000 1,380 Climbing New York Center
09:06PM 40.1758 -74.8703 265° West 386 444 20,000 480 Climbing New York Center
09:07PM 40.1622 -75.0133 263° West 391 450 20,000  Level New York Center
09:08PM 40.1117 -75.1406 243° Southwest 391 450 20,000  Level New York Center
09:09PM 40.0778 -75.2658 251° West 372 428 20,000  Level New York Center
09:10PM 40.1019 -75.4006 283° West 372 428 20,000  Level New York Center
09:11PM 40.1264 -75.5189 285° West 372 428 20,000 540 Level New York Center
09:12PM 40.1106 -75.6481 261° West 372 428 21,100 1,080 Climbing New York Center
09:13PM 40.0094 -75.6789 193° South 292 336 22,200 1,620 Climbing New York Center
09:14PM 39.9061 -75.7069 192° South 328 377 24,400 2,100 Climbing New York Center
09:15PM 39.8372 -75.8075 228° Southwest 354 407 26,400 1,500 Climbing New York Center
09:16PM 39.7722 -75.9108 231° Southwest 364 419 27,400 780 Climbing New York Center
09:17PM 39.7047 -76.0219 232° Southwest 380 437 28,000 300 Climbing New York Center
09:18PM 39.6286 -76.1403 230° Southwest 410 472 28,000 600 Level New York Center
09:19PM 39.5389 -76.2736 229° Southwest 435 501 29,200 1,080 Climbing New York Center
09:21PM 39.4356 -76.4353 230° Southwest 449 517 30,700 1,140 Climbing Washington Center
09:21PM 39.3472 -76.5683 229° Southwest 457 526 32,000 1,140 Climbing Washington Center
09:22PM 39.2711 -76.6908 231° Southwest 452 520 33,000 900 Climbing Washington Center
09:23PM 39.1928 -76.8100 230° Southwest 452 520 33,900 480 Climbing Washington Center
09:25PM 39.1122 -76.9344 230° Southwest 452 520 34,000  Climbing Washington Center
09:26PM 39.0275 -77.0558 228° Southwest 452 520 34,000  Level Washington Center
09:27PM 38.9303 -77.1633 221° Southwest 457 526 34,000  Level Washington Center
09:27PM 38.8286 -77.2731 220° Southwest 468 539 34,000  Level Washington Center
09:28PM 38.7269 -77.3825 220° Southwest 475 547 34,000  Level Washington Center
09:30PM 38.6294 -77.4919 221° Southwest 480 552 34,000  Level Washington Center
09:30PM 38.5297 -77.6008 221° Southwest 480 552 34,000  Level Washington Center
09:31PM 38.4319 -77.7094 221° Southwest 475 547 34,000  Level Washington Center
09:33PM 38.3425 -77.8047 220° Southwest 470 541 34,000 120 Level Washington Center
09:34PM 38.2386 -77.9050 217° Southwest 465 535 34,300 600 Climbing Washington Center
09:35PM 38.1364 -78.0047 218° Southwest 470 541 35,300 840 Climbing Washington Center
09:36PM 38.0386 -78.1044 219° Southwest 470 541 36,000 300 Climbing Washington Center
09:36PM 37.9300 -78.2114 218° Southwest 457 526 36,000  Level Washington Center
09:37PM 37.8361 -78.3028 218° Southwest 464 534 36,000  Level Washington Center
09:39PM 37.7317 -78.4014 217° Southwest 469 540 36,000  Level Washington Center
09:40PM 37.6250 -78.4997 216° Southwest 474 545 36,000  Level Washington Center
09:41PM 37.5244 -78.6006 219° Southwest 469 540 36,000  Level Washington Center
09:41PM 37.4111 -78.7058 216° Southwest 469 540 36,000  Level Washington Center
09:43PM 37.3086 -78.8011 216° Southwest 469 540 36,000  Level Washington Center
09:44PM 37.2058 -78.8958 216° Southwest 469 540 36,000  Level Washington Center
09:44PM 37.1028 -78.9956 218° Southwest 469 540 36,000  Level Washington Center
09:45PM 36.9978 -79.0950 217° Southwest 469 540 36,000  Level Washington Center
09:47PM 36.9033 -79.1867 218° Southwest 474 545 36,000  Level Washington Center
09:48PM 36.7917 -79.2878 216° Southwest 482 555 36,000  Level Washington Center
09:48PM 36.6864 -79.3864 217° Southwest 482 555 36,000  Level Washington Center
09:51PM 36.4556 -79.5964 216° Southwest 497 572 36,000  Level Atlanta Center
09:52PM 36.3464 -79.6981 217° Southwest 492 566 36,000  Level Atlanta Center
09:53PM 36.2517 -79.7856 217° Southwest 487 560 36,000  Level Atlanta Center
09:54PM 36.1444 -79.8836 216° Southwest 487 560 36,000  Level Atlanta Center
09:55PM 36.0328 -79.9792 215° Southwest 487 560 36,000  Level Atlanta Center
09:56PM 35.8975 -80.0475 202° Southwest 481 554 36,000  Level Atlanta Center
09:57PM 35.7697 -80.0947 197° South 481 554 36,000  Level Atlanta Center
09:58PM 35.6519 -80.1336 195° South 481 554 36,000  Level Atlanta Center
09:59PM 35.5219 -80.1756 195° South 481 554 36,000  Level Atlanta Center
10:00PM 35.3939 -80.2172 195° South 481 554 36,000  Level Atlanta Center
10:01PM 35.1531 -80.2906 194° South 474 545 36,000  Level Jacksonville Center
10:02PM 35.0122 -80.3378 195° South 474 545 36,000  Level Jacksonville Center
10:03PM 34.8961 -80.3742 194° South 474 545 36,000  Level Jacksonville Center
10:04PM 34.7717 -80.4133 194° South 480 552 36,000  Level Jacksonville Center
10:05PM 34.6431 -80.4522 194° South 475 547 36,000  Level Jacksonville Center
10:06PM 34.5147 -80.4936 195° South 470 541 36,000  Level Jacksonville Center
10:07PM 34.3881 -80.5325 194° South 470 541 36,000  Level Jacksonville Center
10:08PM 34.2617 -80.5711 194° South 470 541 36,000  Level Jacksonville Center
10:09PM 34.1350 -80.6094 194° South 470 541 36,000  Level Jacksonville Center
10:10PM 33.9919 -80.6533 194° South 475 547 36,000  Level Jacksonville Center
10:11PM 33.8653 -80.6917 194° South 475 547 36,000  Level Jacksonville Center
10:12PM 33.7386 -80.7297 194° South 470 541 36,000  Level Jacksonville Center
10:13PM 33.6142 -80.7703 195° South 470 541 36,000  Level Jacksonville Center
10:14PM 33.4853 -80.8081 194° South 470 541 36,000  Level Jacksonville Center
10:15PM 33.3586 -80.8458 194° South 470 541 36,000 -240 Level Jacksonville Center
10:17PM 33.2366 -80.8797 193° South  Level FlightAware Approximate
10:17PM 33.1031 -80.9211 193° South 470 541 35,300  Level Jacksonville Center
10:18PM 32.9783 -80.9561 193° South 470 541 34,400 -1,020 Descending Jacksonville Center
10:19PM 32.8558 -80.9958 195° South 470 541 33,300 -1,140 Descending Jacksonville Center
10:20PM 32.7311 -81.0306 193° South 465 535 32,200 -1,140 Descending Jacksonville Center
10:21PM 32.6106 -81.0675 194° South 455 524 31,100 -1,080 Descending Jacksonville Center
10:22PM 32.4964 -81.1019 194° South 455 524 30,100 -600 Descending Jacksonville Center
10:23PM 32.3589 -81.1392 193° South 462 532 30,000 -60 Descending Jacksonville Center
10:24PM 32.2364 -81.1758 194° South 462 532 30,000  Level Jacksonville Center
10:25PM 32.1053 -81.2125 193° South 473 544 30,000  Level Jacksonville Center
10:26PM 31.9700 -81.2542 195° South 496 571 30,000  Level Jacksonville Center
10:27PM 31.8389 -81.2833 191° South 484 557 30,000 -360 Level Jacksonville Center
10:28PM 31.7264 -81.3072 190° South 478 550 29,300 -1,740 Descending Jacksonville Center
10:29PM 31.5911 -81.3364 190° South 464 534 26,600 -3,000 Descending Jacksonville Center
10:30PM 31.4828 -81.3578 190° South 444 511 23,300 -3,480 Descending Jacksonville Center
10:32PM 31.3350 -81.3894 190° South 426 490 19,400 -3,240 Descending Jacksonville Center
10:32PM 31.2642 -81.4053 191° South 423 487 17,800 -2,820 Descending Jacksonville Center
10:33PM 31.1539 -81.4264 189° South 403 464 14,800 -2,760 Descending Jacksonville Center
10:34PM 31.0308 -81.4525 190° South 406 467 11,500 -2,040 Descending Jacksonville Center
10:35PM 30.9247 -81.4758 191° South 318 366 10,100 -720 Descending Jacksonville Center
10:36PM 30.8564 -81.5325 215° Southwest 294 338 10,100 -480 Level Jacksonville Center
10:37PM 30.8006 -81.5842 218° Southwest 271 312 9,200 -1,440 Descending Jacksonville Center
10:38PM 30.7383 -81.6381 217° Southwest 275 316 7,400 -1,620 Descending Jacksonville Center
10:39PM 30.6764 -81.6872 214° Southwest 272 313 6,000 -1,260 Descending Jacksonville Center
10:40PM 30.6244 -81.7289 215° Southwest 274 315 4,900 -1,200 Descending Jacksonville Center
10:41PM 30.5664 -81.7781 216° Southwest 263 303 3,600 -1,320 Descending Jacksonville Center